createdAt,value
2018-05-25T00:00:21.638Z,984.48
2018-05-25T00:01:21.598Z,984.48
2018-05-25T00:02:21.563Z,984.46
2018-05-25T00:03:21.537Z,984.46
2018-05-25T00:04:21.503Z,984.41
2018-05-25T00:05:21.466Z,984.39
2018-05-25T00:06:21.439Z,984.38
2018-05-25T00:07:21.396Z,984.37
2018-05-25T00:08:21.365Z,984.36
2018-05-25T00:09:21.335Z,984.34
2018-05-25T00:10:21.312Z,984.35
2018-05-25T00:11:21.277Z,984.34
2018-05-25T00:12:21.238Z,984.34
2018-05-25T00:13:21.205Z,984.30
2018-05-25T00:14:21.195Z,984.34
2018-05-25T00:15:21.137Z,984.30
2018-05-25T00:16:21.103Z,984.36
2018-05-25T00:17:21.088Z,984.32
2018-05-25T00:18:21.040Z,984.30
2018-05-25T00:19:21.014Z,984.28
2018-05-25T00:20:20.968Z,984.27
2018-05-25T00:21:20.942Z,984.31
2018-05-25T00:22:20.910Z,984.29
2018-05-25T00:23:20.886Z,984.29
2018-05-25T00:24:20.844Z,984.30
2018-05-25T00:25:20.814Z,984.31
2018-05-25T00:26:20.798Z,984.32
2018-05-25T00:27:20.744Z,984.31
2018-05-25T00:28:20.721Z,984.33
2018-05-25T00:29:20.698Z,984.35
2018-05-25T00:30:20.662Z,984.34
2018-05-25T00:31:20.615Z,984.34
2018-05-25T00:32:20.583Z,984.32
2018-05-25T00:33:20.559Z,984.34
2018-05-25T00:34:20.519Z,984.37
2018-05-25T00:35:20.480Z,984.39
2018-05-25T00:36:20.453Z,984.37
2018-05-25T00:37:20.419Z,984.36
2018-05-25T00:38:20.384Z,984.38
2018-05-25T00:39:20.350Z,984.39
2018-05-25T00:40:20.323Z,984.37
2018-05-25T00:41:20.283Z,984.37
2018-05-25T00:42:20.258Z,984.38
2018-05-25T00:43:20.224Z,984.35
2018-05-25T00:44:20.190Z,984.36
2018-05-25T00:45:20.155Z,984.31
2018-05-25T00:46:20.117Z,984.35
2018-05-25T00:47:20.112Z,984.34
2018-05-25T00:48:20.056Z,984.36
2018-05-25T00:49:20.023Z,984.35
2018-05-25T00:50:19.996Z,984.36
2018-05-25T00:51:19.961Z,984.37
2018-05-25T00:52:19.918Z,984.36
2018-05-25T00:53:19.888Z,984.37
2018-05-25T00:54:19.868Z,984.34
2018-05-25T00:55:19.827Z,984.38
2018-05-25T00:56:19.817Z,984.34
2018-05-25T00:57:19.761Z,984.39
2018-05-25T00:58:19.724Z,984.39
2018-05-25T00:59:19.689Z,984.39
2018-05-25T01:00:19.667Z,984.38
2018-05-25T01:01:19.642Z,984.40
2018-05-25T01:02:19.590Z,984.39
2018-05-25T01:03:19.560Z,984.41
2018-05-25T01:04:19.525Z,984.40
2018-05-25T01:05:19.516Z,984.38
2018-05-25T01:06:19.470Z,984.40
2018-05-25T01:07:19.432Z,984.38
2018-05-25T01:08:19.395Z,984.39
2018-05-25T01:09:19.359Z,984.42
2018-05-25T01:10:19.339Z,984.40
2018-05-25T01:11:19.313Z,984.39
2018-05-25T01:12:19.267Z,984.42
2018-05-25T01:13:19.242Z,984.39
2018-05-25T01:14:19.195Z,984.39
2018-05-25T01:15:19.168Z,984.36
2018-05-25T01:16:19.130Z,984.38
2018-05-25T01:17:19.176Z,984.35
2018-05-25T01:18:19.071Z,984.34
2018-05-25T01:19:19.037Z,984.34
2018-05-25T01:20:19.000Z,984.33
2018-05-25T01:21:18.976Z,984.34
2018-05-25T01:22:18.943Z,984.37
2018-05-25T01:23:18.900Z,984.36
2018-05-25T01:24:18.866Z,984.35
2018-05-25T01:25:18.849Z,984.35
2018-05-25T01:26:18.802Z,984.35
2018-05-25T01:27:18.771Z,984.34
2018-05-25T01:28:18.738Z,984.32
2018-05-25T01:29:18.698Z,984.30
2018-05-25T01:30:18.704Z,984.31
2018-05-25T01:31:18.666Z,984.31
2018-05-25T01:32:18.608Z,984.29
2018-05-25T01:33:18.572Z,984.33
2018-05-25T01:34:18.559Z,984.27
2018-05-25T01:35:18.506Z,984.30
2018-05-25T01:36:18.467Z,984.28
2018-05-25T01:37:18.433Z,984.32
2018-05-25T01:38:18.427Z,984.31
2018-05-25T01:39:18.372Z,984.31
2018-05-25T01:40:18.348Z,984.31
2018-05-25T01:41:18.298Z,984.28
2018-05-25T01:42:18.282Z,984.32
2018-05-25T01:43:18.259Z,984.29
2018-05-25T01:44:18.210Z,984.30
2018-05-25T01:45:18.187Z,984.34
2018-05-25T01:46:18.134Z,984.33
2018-05-25T01:47:18.131Z,984.32
2018-05-25T01:48:18.072Z,984.34
2018-05-25T01:49:18.037Z,984.33
2018-05-25T01:50:18.009Z,984.29
2018-05-25T01:51:17.977Z,984.30
2018-05-25T01:52:17.942Z,984.34
2018-05-25T01:53:17.907Z,984.30
2018-05-25T01:54:17.867Z,984.31
2018-05-25T01:55:17.838Z,984.31
2018-05-25T01:56:17.804Z,984.31
2018-05-25T01:57:17.776Z,984.33
2018-05-25T01:58:17.736Z,984.30
2018-05-25T01:59:17.706Z,984.31
2018-05-25T02:00:17.670Z,984.37
2018-05-25T02:01:17.641Z,984.37
2018-05-25T02:02:17.616Z,984.33
2018-05-25T02:03:17.579Z,984.36
2018-05-25T02:04:17.538Z,984.39
2018-05-25T02:05:17.510Z,984.36
2018-05-25T02:06:17.475Z,984.40
2018-05-25T02:07:17.436Z,984.39
2018-05-25T02:08:17.399Z,984.40
2018-05-25T02:09:17.373Z,984.36
2018-05-25T02:10:17.345Z,984.38
2018-05-25T02:11:17.306Z,984.37
2018-05-25T02:12:17.292Z,984.36
2018-05-25T02:13:17.231Z,984.36
2018-05-25T02:14:17.213Z,984.38
2018-05-25T02:15:17.169Z,984.36
2018-05-25T02:16:17.135Z,984.36
2018-05-25T02:17:17.104Z,984.37
2018-05-25T02:18:17.070Z,984.38
2018-05-25T02:19:17.040Z,984.42
2018-05-25T02:20:16.999Z,984.39
2018-05-25T02:21:16.967Z,984.37
2018-05-25T02:22:16.935Z,984.38
2018-05-25T02:23:16.901Z,984.39
2018-05-25T02:24:16.902Z,984.39
2018-05-25T02:25:16.842Z,984.42
2018-05-25T02:26:16.803Z,984.38
2018-05-25T02:27:16.767Z,984.38
2018-05-25T02:28:16.733Z,984.41
2018-05-25T02:29:16.707Z,984.42
2018-05-25T02:30:16.663Z,984.39
2018-05-25T02:31:16.651Z,984.39
2018-05-25T02:32:16.601Z,984.38
2018-05-25T02:33:16.563Z,984.45
2018-05-25T02:34:16.537Z,984.44
2018-05-25T02:36:37.488Z,984.40
2018-05-25T02:37:37.491Z,984.39
2018-05-25T02:38:37.466Z,984.40
2018-05-25T02:39:37.579Z,984.34
2018-05-25T02:40:37.329Z,984.37
2018-05-25T02:41:37.292Z,984.39
2018-05-25T02:42:37.258Z,984.36
2018-05-25T02:43:37.222Z,984.34
2018-05-25T02:44:37.196Z,984.33
2018-05-25T02:45:37.159Z,984.30
2018-05-25T02:46:37.136Z,984.30
2018-05-25T02:47:37.107Z,984.28
2018-05-25T02:48:37.059Z,984.27
2018-05-25T02:49:37.042Z,984.26
2018-05-25T02:50:36.994Z,984.24
2018-05-25T02:51:36.995Z,984.28
2018-05-25T02:52:36.926Z,984.24
2018-05-25T02:53:36.913Z,984.26
2018-05-25T02:54:36.866Z,984.21
2018-05-25T02:55:36.818Z,984.24
2018-05-25T02:56:36.789Z,984.21
2018-05-25T02:57:36.767Z,984.17
2018-05-25T02:58:36.733Z,984.17
2018-05-25T02:59:36.691Z,984.19
2018-05-25T03:00:36.652Z,984.23
2018-05-25T03:01:36.625Z,984.22
2018-05-25T03:02:36.582Z,984.22
2018-05-25T03:03:36.549Z,984.22
2018-05-25T03:04:36.519Z,984.20
2018-05-25T03:05:36.487Z,984.20
2018-05-25T03:06:36.452Z,984.23
2018-05-25T03:07:36.418Z,984.21
2018-05-25T03:08:36.381Z,984.18
2018-05-25T03:09:36.355Z,984.18
2018-05-25T03:10:36.319Z,984.19
2018-05-25T03:11:36.286Z,984.19
2018-05-25T03:12:36.249Z,984.18
2018-05-25T03:13:36.212Z,984.16
2018-05-25T03:14:36.181Z,984.15
2018-05-25T03:15:36.147Z,984.16
2018-05-25T03:16:36.112Z,984.12
2018-05-25T03:17:36.126Z,984.16
2018-05-25T03:18:36.064Z,984.21
2018-05-25T03:19:36.060Z,984.17
2018-05-25T03:20:35.980Z,984.18
2018-05-25T03:21:35.941Z,984.19
2018-05-25T03:22:35.908Z,984.17
2018-05-25T03:23:35.884Z,984.17
2018-05-25T03:24:35.842Z,984.17
2018-05-25T03:25:35.805Z,984.18
2018-05-25T03:26:35.779Z,984.19
2018-05-25T03:27:35.758Z,984.21
2018-05-25T03:28:35.709Z,984.19
2018-05-25T03:29:35.672Z,984.19
2018-05-25T03:30:35.639Z,984.23
2018-05-25T03:31:35.612Z,984.23
2018-05-25T03:32:35.571Z,984.27
2018-05-25T03:33:35.540Z,984.29
2018-05-25T03:34:35.507Z,984.30
2018-05-25T03:35:35.466Z,984.29
2018-05-25T03:36:35.433Z,984.32
2018-05-25T03:37:35.399Z,984.33
2018-05-25T03:38:35.375Z,984.33
2018-05-25T03:39:35.328Z,984.35
2018-05-25T03:40:35.295Z,984.32
2018-05-25T03:41:35.268Z,984.32
2018-05-25T03:42:35.231Z,984.33
2018-05-25T03:43:35.197Z,984.30
2018-05-25T03:44:35.163Z,984.31
2018-05-25T03:45:35.124Z,984.30
2018-05-25T03:46:35.091Z,984.28
2018-05-25T03:47:35.065Z,984.31
2018-05-25T03:48:35.049Z,984.29
2018-05-25T03:49:34.993Z,984.28
2018-05-25T03:50:34.952Z,984.25
2018-05-25T03:51:34.920Z,984.24
2018-05-25T03:52:34.890Z,984.28
2018-05-25T03:53:34.861Z,984.24
2018-05-25T03:54:34.825Z,984.25
2018-05-25T03:55:34.786Z,984.21
2018-05-25T03:56:34.753Z,984.26
2018-05-25T03:57:34.723Z,984.22
2018-05-25T03:58:34.695Z,984.24
2018-05-25T03:59:34.655Z,984.25
2018-05-25T04:00:34.620Z,984.26
2018-05-25T04:01:34.591Z,984.28
2018-05-25T04:02:34.556Z,984.27
2018-05-25T04:03:34.513Z,984.32
2018-05-25T04:04:34.509Z,984.30
2018-05-25T04:05:34.450Z,984.31
2018-05-25T04:06:34.420Z,984.30
2018-05-25T04:07:34.386Z,984.34
2018-05-25T04:08:34.353Z,984.35
2018-05-25T04:09:34.313Z,984.34
2018-05-25T04:10:34.282Z,984.39
2018-05-25T04:11:34.257Z,984.44
2018-05-25T04:12:34.217Z,984.42
2018-05-25T04:13:34.176Z,984.44
2018-05-25T04:14:34.146Z,984.42
2018-05-25T04:15:34.114Z,984.42
2018-05-25T04:16:34.079Z,984.42
2018-05-25T04:17:34.058Z,984.43
2018-05-25T04:18:34.011Z,984.39
2018-05-25T04:19:34.014Z,984.42
2018-05-25T04:20:33.948Z,984.44
2018-05-25T04:21:33.907Z,984.44
2018-05-25T04:22:33.872Z,984.43
2018-05-25T04:23:33.839Z,984.45
2018-05-25T04:24:33.816Z,984.47
2018-05-25T04:25:33.776Z,984.46
2018-05-25T04:26:33.739Z,984.46
2018-05-25T04:27:33.703Z,984.53
2018-05-25T04:28:33.672Z,984.49
2018-05-25T04:29:33.640Z,984.50
2018-05-25T04:30:33.609Z,984.52
2018-05-25T04:31:33.575Z,984.51
2018-05-25T04:32:33.547Z,984.54
2018-05-25T04:33:33.500Z,984.49
2018-05-25T04:34:33.468Z,984.53
2018-05-25T04:35:33.454Z,984.52
2018-05-25T04:36:33.406Z,984.57
2018-05-25T04:37:33.371Z,984.56
2018-05-25T04:38:33.339Z,984.58
2018-05-25T04:39:33.306Z,984.57
2018-05-25T04:40:33.273Z,984.57
2018-05-25T04:41:33.234Z,984.56
2018-05-25T04:42:33.197Z,984.55
2018-05-25T04:43:33.172Z,984.53
2018-05-25T04:44:33.136Z,984.53
2018-05-25T04:45:33.097Z,984.53
2018-05-25T04:46:33.063Z,984.57
2018-05-25T04:47:33.055Z,984.58
2018-05-25T04:48:32.997Z,984.60
2018-05-25T04:49:32.977Z,984.59
2018-05-25T04:50:32.933Z,984.59
2018-05-25T04:51:32.901Z,984.61
2018-05-25T04:52:32.868Z,984.63
2018-05-25T04:53:32.831Z,984.62
2018-05-25T04:54:32.793Z,984.65
2018-05-25T04:55:32.764Z,984.64
2018-05-25T04:56:32.748Z,984.68
2018-05-25T04:57:32.695Z,984.68
2018-05-25T04:58:32.664Z,984.69
2018-05-25T04:59:32.624Z,984.68
2018-05-25T05:00:32.608Z,984.71
2018-05-25T05:01:32.563Z,984.70
2018-05-25T05:02:32.538Z,984.74
2018-05-25T05:03:32.497Z,984.74
2018-05-25T05:04:32.462Z,984.76
2018-05-25T05:05:32.469Z,984.77
2018-05-25T05:06:32.393Z,984.77
2018-05-25T05:07:32.357Z,984.78
2018-05-25T05:08:40.979Z,984.82
2018-05-25T05:10:25.674Z,984.82
2018-05-25T05:11:25.611Z,984.83
2018-05-25T05:12:25.574Z,984.86
2018-05-25T05:13:25.543Z,984.83
2018-05-25T05:14:25.516Z,984.83
2018-05-25T05:15:25.479Z,984.85
2018-05-25T05:16:25.441Z,984.86
2018-05-25T05:17:25.410Z,984.90
2018-05-25T05:18:25.381Z,984.93
2018-05-25T05:19:25.348Z,984.93
2018-05-25T05:20:25.315Z,984.91
2018-05-25T05:21:25.276Z,984.92
2018-05-25T05:22:25.269Z,984.94
2018-05-25T05:23:25.211Z,984.94
2018-05-25T05:24:25.186Z,984.96
2018-05-25T05:25:25.147Z,984.93
2018-05-25T05:26:25.127Z,984.97
2018-05-25T05:27:25.087Z,985.00
2018-05-25T05:28:25.058Z,984.99
2018-05-25T05:29:25.020Z,984.98
2018-05-25T05:30:24.984Z,985.03
2018-05-25T05:31:24.963Z,985.01
2018-05-25T05:32:24.923Z,985.04
2018-05-25T05:33:24.894Z,985.03
2018-05-25T05:34:24.852Z,985.05
2018-05-25T05:35:24.814Z,985.08
2018-05-25T05:36:24.800Z,985.07
2018-05-25T05:37:24.758Z,985.03
2018-05-25T05:38:24.730Z,985.03
2018-05-25T05:39:24.703Z,985.06
2018-05-25T05:40:24.673Z,985.07
2018-05-25T05:41:24.652Z,985.05
2018-05-25T05:42:24.595Z,985.03
2018-05-25T05:43:24.560Z,985.04
2018-05-25T05:44:24.542Z,985.02
2018-05-25T05:45:24.525Z,985.05
2018-05-25T05:46:24.485Z,985.07
2018-05-25T05:47:24.440Z,985.03
2018-05-25T05:48:24.398Z,985.06
2018-05-25T05:49:24.368Z,985.03
2018-05-25T05:50:24.335Z,985.06
2018-05-25T05:51:24.309Z,985.05
2018-05-25T05:52:24.283Z,985.02
2018-05-25T05:53:24.244Z,985.04
2018-05-25T05:54:24.230Z,985.00
2018-05-25T05:55:24.206Z,984.96
2018-05-25T05:56:24.138Z,985.02
2018-05-25T05:57:24.114Z,984.97
2018-05-25T05:58:24.079Z,985.00
2018-05-25T05:59:24.053Z,984.99
2018-05-25T06:00:24.042Z,985.00
2018-05-25T06:01:23.981Z,985.05
2018-05-25T06:02:23.954Z,985.01
2018-05-25T06:03:23.916Z,985.08
2018-05-25T06:04:23.907Z,985.10
2018-05-25T06:05:23.884Z,985.12
2018-05-25T06:06:23.821Z,985.10
2018-05-25T06:07:23.787Z,985.04
2018-05-25T06:08:23.758Z,985.09
2018-05-25T06:09:23.726Z,985.07
2018-05-25T06:10:23.713Z,985.09
2018-05-25T06:11:23.696Z,985.08
2018-05-25T06:12:23.659Z,985.10
2018-05-25T06:13:23.612Z,985.11
2018-05-25T06:14:23.577Z,985.08
2018-05-25T06:15:23.537Z,985.10
2018-05-25T06:16:23.502Z,985.12
2018-05-25T06:17:23.472Z,985.10
2018-05-25T06:18:23.441Z,985.11
2018-05-25T06:19:23.415Z,985.14
2018-05-25T06:20:23.373Z,985.14
2018-05-25T06:21:23.351Z,985.15
2018-05-25T06:22:23.316Z,985.18
2018-05-25T06:23:23.286Z,985.19
2018-05-25T06:24:23.260Z,985.15
2018-05-25T06:25:23.229Z,985.16
2018-05-25T06:26:23.188Z,985.16
2018-05-25T06:27:23.157Z,985.17
2018-05-25T06:28:23.149Z,985.19
2018-05-25T06:29:23.122Z,985.18
2018-05-25T06:30:23.073Z,985.16
2018-05-25T06:31:23.041Z,985.19
2018-05-25T06:32:23.010Z,985.21
2018-05-25T06:33:22.977Z,985.22
2018-05-25T06:34:22.940Z,985.22
2018-05-25T06:35:22.911Z,985.25
2018-05-25T06:36:22.879Z,985.28
2018-05-25T06:37:22.871Z,985.29
2018-05-25T06:38:22.814Z,985.30
2018-05-25T06:39:22.784Z,985.27
2018-05-25T06:40:22.775Z,985.29
2018-05-25T06:41:22.722Z,985.30
2018-05-25T06:42:22.695Z,985.33
2018-05-25T06:43:22.670Z,985.33
2018-05-25T06:44:22.665Z,985.35
2018-05-25T06:45:22.601Z,985.37
2018-05-25T06:46:22.567Z,985.35
2018-05-25T06:47:22.545Z,985.38
2018-05-25T06:48:22.504Z,985.36
2018-05-25T06:49:22.477Z,985.36
2018-05-25T06:50:22.449Z,985.38
2018-05-25T06:51:22.421Z,985.36
2018-05-25T06:52:22.389Z,985.38
2018-05-25T06:53:22.355Z,985.35
2018-05-25T06:54:22.328Z,985.38
2018-05-25T06:55:22.307Z,985.39
2018-05-25T06:56:22.264Z,985.35
2018-05-25T06:57:22.235Z,985.37
2018-05-25T06:58:22.207Z,985.35
2018-05-25T06:59:22.197Z,985.37
2018-05-25T07:00:22.149Z,985.41
2018-05-25T07:01:22.112Z,985.40
2018-05-25T07:02:22.090Z,985.39
2018-05-25T07:03:22.060Z,985.45
2018-05-25T07:04:22.027Z,985.45
2018-05-25T07:05:22.006Z,985.46
2018-05-25T07:06:21.975Z,985.49
2018-05-25T07:07:21.924Z,985.47
2018-05-25T07:08:21.909Z,985.50
2018-05-25T07:09:21.872Z,985.47
2018-05-25T07:10:21.843Z,985.51
2018-05-25T07:11:21.807Z,985.49
2018-05-25T07:12:21.778Z,985.56
2018-05-25T07:13:21.749Z,985.56
2018-05-25T07:14:21.726Z,985.56
2018-05-25T07:15:21.691Z,985.59
2018-05-25T07:16:21.671Z,985.62
2018-05-25T07:17:21.664Z,985.64
2018-05-25T07:18:21.606Z,985.64
2018-05-25T07:19:21.585Z,985.63
2018-05-25T07:20:21.538Z,985.65
2018-05-25T07:21:21.530Z,985.68
2018-05-25T07:22:21.482Z,985.67
2018-05-25T07:23:21.459Z,985.72
2018-05-25T07:24:21.416Z,985.71
2018-05-25T07:25:21.392Z,985.72
2018-05-25T07:26:21.365Z,985.75
2018-05-25T07:27:21.336Z,985.70
2018-05-25T07:28:21.312Z,985.70
2018-05-25T07:29:21.289Z,985.68
2018-05-25T07:30:21.251Z,985.71
2018-05-25T07:31:21.232Z,985.71
2018-05-25T07:32:21.183Z,985.73
2018-05-25T07:33:21.161Z,985.73
2018-05-25T07:34:21.128Z,985.75
2018-05-25T07:35:21.124Z,985.73
2018-05-25T07:36:21.072Z,985.73
2018-05-25T07:37:21.033Z,985.74
2018-05-25T07:38:21.003Z,985.73
2018-05-25T07:39:20.973Z,985.70
2018-05-25T07:40:20.947Z,985.70
2018-05-25T07:41:20.936Z,985.66
2018-05-25T07:42:29.635Z,985.70
2018-05-25T07:44:14.236Z,985.65
2018-05-25T07:45:14.184Z,985.61
2018-05-25T07:46:14.157Z,985.60
2018-05-25T07:47:14.112Z,985.62
2018-05-25T07:48:14.089Z,985.61
2018-05-25T07:49:14.050Z,985.62
2018-05-25T07:50:14.025Z,985.63
2018-05-25T07:51:14.002Z,985.63
2018-05-25T07:52:13.972Z,985.62
2018-05-25T07:53:13.939Z,985.63
2018-05-25T07:54:13.911Z,985.64
2018-05-25T07:55:13.884Z,985.65
2018-05-25T07:56:13.848Z,985.68
2018-05-25T07:57:13.844Z,985.66
2018-05-25T07:58:13.788Z,985.66
2018-05-25T07:59:13.764Z,985.66
2018-05-25T08:00:13.774Z,985.69
2018-05-25T08:01:13.695Z,985.66
2018-05-25T08:02:13.667Z,985.67
2018-05-25T08:03:13.641Z,985.64
2018-05-25T08:04:13.614Z,985.68
2018-05-25T08:05:13.585Z,985.71
2018-05-25T08:06:13.563Z,985.70
2018-05-25T08:07:13.529Z,985.74
2018-05-25T08:08:13.501Z,985.76
2018-05-25T08:09:13.457Z,985.76
2018-05-25T08:10:13.450Z,985.83
2018-05-25T08:11:13.408Z,985.79
2018-05-25T08:12:13.377Z,985.84
2018-05-25T08:13:13.344Z,985.78
2018-05-25T08:14:13.323Z,985.75
2018-05-25T08:15:13.292Z,985.76
2018-05-25T08:16:13.251Z,985.78
2018-05-25T08:17:13.227Z,985.82
2018-05-25T08:18:13.197Z,985.76
2018-05-25T08:19:13.164Z,985.76
2018-05-25T08:20:13.135Z,985.81
2018-05-25T08:21:13.104Z,985.81
2018-05-25T08:22:13.076Z,985.79
2018-05-25T08:23:13.047Z,985.79
2018-05-25T08:24:13.023Z,985.80
2018-05-25T08:25:12.999Z,985.86
2018-05-25T08:26:12.963Z,985.80
2018-05-25T08:27:12.931Z,985.80
2018-05-25T08:28:12.917Z,985.80
2018-05-25T08:29:12.868Z,985.79
2018-05-25T08:30:12.846Z,985.80
2018-05-25T08:31:12.812Z,985.80
2018-05-25T08:32:12.788Z,985.80
2018-05-25T08:33:12.750Z,985.79
2018-05-25T08:34:12.721Z,985.81
2018-05-25T08:35:12.701Z,985.81
2018-05-25T08:36:12.674Z,985.84
2018-05-25T08:37:12.643Z,985.82
2018-05-25T08:38:12.631Z,985.81
2018-05-25T08:39:12.578Z,985.77
2018-05-25T08:40:12.546Z,985.79
2018-05-25T08:41:12.517Z,985.80
2018-05-25T08:42:12.490Z,985.77
2018-05-25T08:43:12.497Z,985.80
2018-05-25T08:44:12.431Z,985.78
2018-05-25T08:45:12.406Z,985.84
2018-05-25T08:46:12.381Z,985.82
2018-05-25T08:47:12.343Z,985.74
2018-05-25T08:48:12.315Z,985.72
2018-05-25T08:49:12.293Z,985.74
2018-05-25T08:50:12.257Z,985.74
2018-05-25T08:51:12.226Z,985.78
2018-05-25T08:52:12.193Z,985.81
2018-05-25T08:53:12.163Z,985.73
2018-05-25T08:54:12.168Z,985.70
2018-05-25T08:55:12.141Z,985.73
2018-05-25T08:56:12.090Z,985.70
2018-05-25T08:57:12.062Z,985.69
2018-05-25T08:58:12.028Z,985.71
2018-05-25T08:59:11.991Z,985.67
2018-05-25T09:00:11.961Z,985.68
2018-05-25T09:01:11.973Z,985.81
2018-05-25T09:02:11.907Z,985.82
2018-05-25T09:03:11.876Z,985.72
2018-05-25T09:04:11.852Z,985.69
2018-05-25T09:05:11.823Z,985.82
2018-05-25T09:06:11.787Z,985.76
2018-05-25T09:07:11.759Z,985.70
2018-05-25T09:08:11.737Z,985.68
2018-05-25T09:09:11.703Z,985.67
2018-05-25T09:10:11.685Z,985.70
2018-05-25T09:11:11.640Z,985.67
2018-05-25T09:12:11.611Z,985.70
2018-05-25T09:13:11.578Z,985.65
2018-05-25T09:14:11.553Z,985.72
2018-05-25T09:15:11.527Z,985.85
2018-05-25T09:16:11.511Z,985.82
2018-05-25T09:17:11.472Z,985.82
2018-05-25T09:18:11.439Z,985.86
2018-05-25T09:19:11.412Z,985.86
2018-05-25T09:20:11.379Z,985.82
2018-05-25T09:21:11.376Z,985.83
2018-05-25T09:22:11.323Z,985.81
2018-05-25T09:23:11.291Z,985.85
2018-05-25T09:24:11.261Z,985.85
2018-05-25T09:25:11.229Z,985.86
2018-05-25T09:26:11.222Z,985.82
2018-05-25T09:27:11.206Z,985.80
2018-05-25T09:28:11.154Z,985.82
2018-05-25T09:29:11.122Z,985.81
2018-05-25T09:30:11.112Z,985.84
2018-05-25T09:31:11.058Z,985.82
2018-05-25T09:32:11.061Z,985.80
2018-05-25T09:33:10.997Z,985.80
2018-05-25T09:34:11.014Z,985.80
2018-05-25T09:35:10.956Z,985.79
2018-05-25T09:36:10.920Z,985.78
2018-05-25T09:37:10.913Z,985.80
2018-05-25T09:38:10.857Z,985.82
2018-05-25T09:39:10.834Z,985.84
2018-05-25T09:40:10.810Z,985.83
2018-05-25T09:41:10.777Z,985.84
2018-05-25T09:42:10.748Z,985.75
2018-05-25T09:43:10.747Z,985.80
2018-05-25T09:44:10.682Z,985.79
2018-05-25T09:45:10.652Z,985.75
2018-05-25T09:46:10.625Z,985.75
2018-05-25T09:47:10.604Z,985.75
2018-05-25T09:48:10.579Z,985.72
2018-05-25T09:49:10.543Z,985.71
2018-05-25T09:50:10.514Z,985.72
2018-05-25T09:51:10.492Z,985.69
2018-05-25T09:52:10.453Z,985.68
2018-05-25T09:53:10.427Z,985.69
2018-05-25T09:54:10.408Z,985.65
2018-05-25T09:55:10.369Z,985.65
2018-05-25T09:56:10.373Z,985.69
2018-05-25T09:57:10.313Z,985.67
2018-05-25T09:58:10.293Z,985.62
2018-05-25T09:59:10.261Z,985.63
2018-05-25T10:00:10.229Z,985.61
2018-05-25T10:01:10.205Z,985.62
2018-05-25T10:02:10.180Z,985.61
2018-05-25T10:03:10.145Z,985.64
2018-05-25T10:04:10.114Z,985.61
2018-05-25T10:05:10.103Z,985.64
2018-05-25T10:06:10.058Z,985.63
2018-05-25T10:07:10.030Z,985.63
2018-05-25T10:08:10.012Z,985.57
2018-05-25T10:09:09.973Z,985.55
2018-05-25T10:10:09.943Z,985.63
2018-05-25T10:11:09.915Z,985.72
2018-05-25T10:12:09.903Z,985.69
2018-05-25T10:13:09.869Z,985.72
2018-05-25T10:14:09.831Z,985.64
2018-05-25T10:15:09.803Z,985.57
2018-05-25T10:16:09.774Z,985.58
2018-05-25T10:17:18.466Z,985.59
2018-05-25T10:19:03.146Z,985.54
2018-05-25T10:20:03.071Z,985.53
2018-05-25T10:21:56.441Z,985.60
2018-05-25T10:22:56.373Z,985.61
2018-05-25T10:23:56.483Z,985.62
2018-05-25T10:24:56.312Z,985.65
2018-05-25T10:25:56.284Z,985.63
2018-05-25T10:26:56.257Z,985.65
2018-05-25T10:27:56.227Z,985.67
2018-05-25T10:28:56.201Z,985.61
2018-05-25T10:29:56.163Z,985.68
2018-05-25T10:30:56.140Z,985.71
2018-05-25T10:31:56.119Z,985.70
2018-05-25T10:32:56.089Z,985.70
2018-05-25T10:33:56.058Z,985.71
2018-05-25T10:34:56.026Z,985.76
2018-05-25T10:35:56.002Z,985.72
2018-05-25T10:36:55.993Z,985.69
2018-05-25T10:37:55.939Z,985.68
2018-05-25T10:38:55.909Z,985.63
2018-05-25T10:39:55.878Z,985.66
2018-05-25T10:40:55.902Z,985.65
2018-05-25T10:41:55.864Z,985.65
2018-05-25T10:42:55.793Z,985.64
2018-05-25T10:43:55.761Z,985.60
2018-05-25T10:44:55.742Z,985.60
2018-05-25T10:45:55.713Z,985.62
2018-05-25T10:46:55.681Z,985.54
2018-05-25T10:47:55.656Z,985.56
2018-05-25T10:48:55.623Z,985.56
2018-05-25T10:49:55.596Z,985.55
2018-05-25T10:50:55.564Z,985.61
2018-05-25T10:51:55.554Z,985.56
2018-05-25T10:52:55.521Z,985.50
2018-05-25T10:53:55.484Z,985.51
2018-05-25T10:54:55.452Z,985.54
2018-05-25T10:55:55.496Z,985.55
2018-05-25T10:56:55.395Z,985.57
2018-05-25T10:57:55.368Z,985.53
2018-05-25T10:58:55.338Z,985.57
2018-05-25T10:59:55.316Z,985.55
2018-05-25T11:00:55.279Z,985.48
2018-05-25T11:01:55.256Z,985.46
2018-05-25T11:02:55.223Z,985.47
2018-05-25T11:03:55.194Z,985.50
2018-05-25T11:04:55.175Z,985.47
2018-05-25T11:05:55.159Z,985.53
2018-05-25T11:06:55.113Z,985.52
2018-05-25T11:07:55.087Z,985.55
2018-05-25T11:08:55.053Z,985.50
2018-05-25T11:09:55.096Z,985.47
2018-05-25T11:10:55.007Z,985.48
2018-05-25T11:11:54.968Z,985.47
2018-05-25T11:12:54.948Z,985.47
2018-05-25T11:13:54.916Z,985.48
2018-05-25T11:14:54.893Z,985.47
2018-05-25T11:15:54.862Z,985.43
2018-05-25T11:16:54.837Z,985.39
2018-05-25T11:17:54.803Z,985.46
2018-05-25T11:18:54.774Z,985.46
2018-05-25T11:19:54.751Z,985.44
2018-05-25T11:20:54.750Z,985.48
2018-05-25T11:21:54.689Z,985.49
2018-05-25T11:22:54.659Z,985.42
2018-05-25T11:23:54.639Z,985.47
2018-05-25T11:24:54.609Z,985.40
2018-05-25T11:25:54.577Z,985.35
2018-05-25T11:26:54.560Z,985.34
2018-05-25T11:27:54.533Z,985.33
2018-05-25T11:28:54.490Z,985.33
2018-05-25T11:29:54.474Z,985.28
2018-05-25T11:30:54.436Z,985.31
2018-05-25T11:31:54.417Z,985.28
2018-05-25T11:32:54.382Z,985.24
2018-05-25T11:33:54.356Z,985.26
2018-05-25T11:34:54.330Z,985.28
2018-05-25T11:35:54.303Z,985.27
2018-05-25T11:36:54.294Z,985.28
2018-05-25T11:37:54.245Z,985.27
2018-05-25T11:38:54.222Z,985.30
2018-05-25T11:39:54.208Z,985.23
2018-05-25T11:40:54.153Z,985.25
2018-05-25T11:41:54.135Z,985.25
2018-05-25T11:42:54.111Z,985.26
2018-05-25T11:43:54.080Z,985.28
2018-05-25T11:44:54.054Z,985.32
2018-05-25T11:45:54.023Z,985.27
2018-05-25T11:46:53.993Z,985.30
2018-05-25T11:47:53.965Z,985.32
2018-05-25T11:48:53.938Z,985.32
2018-05-25T11:49:53.911Z,985.33
2018-05-25T11:50:53.881Z,985.32
2018-05-25T11:51:53.868Z,985.34
2018-05-25T11:52:53.821Z,985.36
2018-05-25T11:53:53.794Z,985.32
2018-05-25T11:54:53.775Z,985.31
2018-05-25T11:55:53.738Z,985.27
2018-05-25T11:56:53.717Z,985.24
2018-05-25T11:57:53.686Z,985.30
2018-05-25T11:58:53.657Z,985.30
2018-05-25T11:59:53.633Z,985.31
2018-05-25T12:00:53.604Z,985.34
2018-05-25T12:01:53.692Z,985.31
2018-05-25T12:02:53.545Z,985.30
2018-05-25T12:03:53.522Z,985.29
2018-05-25T12:04:53.486Z,985.30
2018-05-25T12:05:53.459Z,985.35
2018-05-25T12:06:53.450Z,985.29
2018-05-25T12:07:53.401Z,985.25
2018-05-25T12:08:53.386Z,985.34
2018-05-25T12:09:53.350Z,985.36
2018-05-25T12:11:01.940Z,985.37
2018-05-25T12:12:46.684Z,985.36
2018-05-25T12:13:46.615Z,985.31
2018-05-25T12:14:46.592Z,985.29
2018-05-25T12:15:46.562Z,985.28
2018-05-25T12:16:46.566Z,985.29
2018-05-25T12:17:46.501Z,985.38
2018-05-25T12:18:46.478Z,985.35
2018-05-25T12:19:46.450Z,985.33
2018-05-25T12:20:46.427Z,985.32
2018-05-25T12:21:46.406Z,985.31
2018-05-25T12:22:46.370Z,985.26
2018-05-25T12:23:46.346Z,985.29
2018-05-25T12:24:46.314Z,985.27
2018-05-25T12:25:46.294Z,985.21
2018-05-25T12:26:46.255Z,985.19
2018-05-25T12:27:46.228Z,985.26
2018-05-25T12:28:46.201Z,985.22
2018-05-25T12:29:46.172Z,985.27
2018-05-25T12:30:46.145Z,985.35
2018-05-25T12:31:46.113Z,985.33
2018-05-25T12:32:46.087Z,985.33
2018-05-25T12:33:46.066Z,985.33